Briefing drone pour Vendat

Rechercher une autre localisation

Conditions de vol :


Nous sommes le : Vendredi 09 décembre 2022
Il est 12:25 UTC (13:25 LT)

Lever de soleil : 06:51 UTC (07:51 LT)
Coucher de soleil : 16:26 UTC (17:26 LT)

Météo

L'essentiel des conditions de vol

VIGILANCE MÉTÉO FRANCE - Allier (03)
Pas de vigilances particulieres
CARTES DES FRONTS
METAR de LFLV
LFLV 091200Z AUTO 36003KT 310V040 9999 OVC012 02/M00 Q1002

Date d'émission: 09/12/2022
Heure d'émission: 12:00 UTC
Vent: 360° (variable du 310° au 040°) pour 3 KT (6 km/h)
Visibilité horizontale: > 10 km
Plafond :
- Couvert à 1200ft (366m)
Température: 2 °C
Point de rosée: 0 °C
Humidité: 87%
Pression (QNH): 1002 hPa
Prévision 24h pour Vichy (4 km)
Vent : 293° pour 2 KT (5 km/h)
Temperature Maxi: -2 °C
Temperature Min: -2 °C
Humidité : 93%
Condition : Nuageux



Warning: count(): Parameter must be an array or an object that implements Countable in /homepages/6/d509196549/htdocs/droneoxygene/briefing.php on line 743
WEBCAM POUR VENDAT

Réglementation

Voler en sécurité

CARTES AERONAUTIQUE 1/500.000
CARTE AZBA (Reseau basse altitude)
CARTES VAC (LFLV)
SUP AIP




Chargement des AIP...
NOTAM (VENDAT + Terrain à proximité / FIR )




Chargement des NOTAMS...
CONTACT PREFECTURE 03


Avertissement : Les données mises à disposition sont indicatives. Oxygène Drone ne pourra être tenu responsable de dégâts causés aux biens et aux personnes.